Terminal Aerodrome Forecast
Issued by NWS Spokane, WA

Home | Current Version | Previous Version | Text Only | Print | Product List | Glossary On
Versions: 1 2 3 4 5 6 7 8 9 10 11 12 13 14 15 16 17 18 19 20 21 22 23 24
966
FTUS46 KOTX 202328
TAFGEG
TAF
KGEG 202328Z 2100/2124 23019G26KT P6SM FEW050 SCT150 BKN200
     FM210300 23011KT P6SM FEW070 SCT200
     FM211200 19008KT P6SM SCT150 BKN200
     FM212000 23010G17KT P6SM SCT200=

USA.gov is the U.S. government's official web portal to all federal, state and local government web resources and services.